createdAt,value
2023-03-02T00:01:09.720Z,21.88
2023-03-02T00:03:39.517Z,29.73
2023-03-02T00:06:07.529Z,28.15
2023-03-02T00:08:34.972Z,31.85
2023-03-02T00:11:02.362Z,37.00
2023-03-02T00:13:31.483Z,30.65
2023-03-02T00:15:58.385Z,24.65
2023-03-02T00:18:25.317Z,29.88
2023-03-02T00:20:52.131Z,16.58
2023-03-02T00:23:19.270Z,15.90
2023-03-02T00:25:46.211Z,16.50
2023-03-02T00:28:13.011Z,16.15
2023-03-02T00:30:40.390Z,14.48
2023-03-02T00:33:07.302Z,17.67
2023-03-02T00:35:39.151Z,13.05
2023-03-02T00:38:07.375Z,15.20
2023-03-02T00:40:35.546Z,16.30
2023-03-02T00:43:02.690Z,15.38
2023-03-02T00:45:29.744Z,13.75
2023-03-02T00:47:56.829Z,15.52
2023-03-02T00:50:23.634Z,16.83
2023-03-02T00:52:50.524Z,12.98
2023-03-02T00:55:17.531Z,15.07
2023-03-02T00:57:44.505Z,12.85
2023-03-02T01:00:11.970Z,14.70
2023-03-02T01:02:44.354Z,14.85
2023-03-02T01:05:15.151Z,17.80
2023-03-02T01:07:42.217Z,15.85
2023-03-02T01:10:09.903Z,14.80
2023-03-02T01:12:37.439Z,16.25
2023-03-02T01:15:06.086Z,15.00
2023-03-02T01:17:32.981Z,18.63
2023-03-02T01:20:00.214Z,14.45
2023-03-02T01:22:27.265Z,14.73
2023-03-02T01:24:54.495Z,16.88
2023-03-02T01:27:21.487Z,13.77
2023-03-02T01:29:48.470Z,17.85
2023-03-02T01:32:15.487Z,14.25
2023-03-02T01:34:42.382Z,17.13
2023-03-02T01:37:09.233Z,17.00
2023-03-02T01:39:36.076Z,14.68
2023-03-02T01:42:03.194Z,16.10
2023-03-02T01:44:38.758Z,14.82
2023-03-02T01:47:18.000Z,16.60
2023-03-02T01:49:57.665Z,17.10
2023-03-02T01:52:28.210Z,18.80
2023-03-02T01:54:59.375Z,20.25
2023-03-02T01:57:30.574Z,17.05
2023-03-02T02:00:02.164Z,18.70
2023-03-02T02:02:42.036Z,20.45
2023-03-02T02:05:15.951Z,15.75
2023-03-02T02:07:44.558Z,17.15
2023-03-02T02:10:12.334Z,16.75
2023-03-02T02:12:39.227Z,15.40
2023-03-02T02:15:07.050Z,18.08
2023-03-02T02:17:34.377Z,17.40
2023-03-02T02:20:25.814Z,21.38
2023-03-02T02:22:55.416Z,17.98
2023-03-02T02:25:56.077Z,15.23
2023-03-02T02:28:28.208Z,15.35
2023-03-02T02:31:16.810Z,20.08
2023-03-02T02:33:49.448Z,20.13
2023-03-02T02:36:21.722Z,19.90
2023-03-02T02:38:52.898Z,18.25
2023-03-02T02:41:32.599Z,18.33
2023-03-02T02:43:59.843Z,17.38
2023-03-02T02:46:27.159Z,18.58
2023-03-02T02:48:56.276Z,18.92
2023-03-02T02:51:29.653Z,20.15
2023-03-02T02:54:01.731Z,18.83
2023-03-02T02:56:38.531Z,19.35
2023-03-02T02:59:29.721Z,17.70
2023-03-02T03:02:00.238Z,18.05
2023-03-02T03:04:31.044Z,18.80
2023-03-02T03:07:05.641Z,17.15
2023-03-02T03:09:33.313Z,15.70
2023-03-02T03:12:22.212Z,17.42
2023-03-02T03:14:49.949Z,15.60
2023-03-02T03:17:17.108Z,14.50
2023-03-02T03:19:51.809Z,15.60
2023-03-02T03:22:19.242Z,15.57
2023-03-02T03:24:48.424Z,16.55
2023-03-02T03:27:16.753Z,18.45
2023-03-02T03:29:48.488Z,17.70
2023-03-02T03:32:19.020Z,15.55
2023-03-02T03:34:46.492Z,16.92
2023-03-02T03:37:23.799Z,17.40
2023-03-02T03:39:50.890Z,19.08
2023-03-02T03:42:18.648Z,19.15
2023-03-02T03:44:46.289Z,17.40
2023-03-02T03:47:13.460Z,18.08
2023-03-02T03:49:40.586Z,17.13
2023-03-02T03:52:08.270Z,16.95
2023-03-02T03:54:35.321Z,17.52
2023-03-02T03:57:02.240Z,18.52
2023-03-02T03:59:29.388Z,21.50
2023-03-02T04:02:01.755Z,20.08
2023-03-02T04:04:35.035Z,19.15
2023-03-02T04:07:13.366Z,20.88
2023-03-02T04:09:41.476Z,17.70
2023-03-02T04:12:11.890Z,20.65
2023-03-02T04:14:41.999Z,18.98
2023-03-02T04:17:09.184Z,20.27
2023-03-02T04:19:41.027Z,18.55
2023-03-02T04:22:09.156Z,19.98
2023-03-02T04:24:36.129Z,20.75
2023-03-02T04:27:04.624Z,19.20
2023-03-02T04:29:32.954Z,18.58
2023-03-02T04:32:02.242Z,20.00
2023-03-02T04:34:30.744Z,21.33
2023-03-02T04:36:58.075Z,20.50
2023-03-02T04:39:25.163Z,21.73
2023-03-02T04:41:53.604Z,20.70
2023-03-02T04:44:21.384Z,18.90
2023-03-02T04:46:49.137Z,22.25
2023-03-02T04:49:17.824Z,20.02
2023-03-02T04:51:47.390Z,23.08
2023-03-02T04:54:20.187Z,26.00
2023-03-02T04:56:51.602Z,21.80
2023-03-02T04:59:26.912Z,24.30
2023-03-02T05:01:59.705Z,20.45
2023-03-02T05:04:28.020Z,19.30
2023-03-02T05:06:55.456Z,23.60
2023-03-02T05:09:27.319Z,21.45
2023-03-02T05:11:59.260Z,25.77
2023-03-02T05:14:27.075Z,23.45
2023-03-02T05:16:54.620Z,24.65
2023-03-02T05:19:21.668Z,31.83
2023-03-02T05:21:48.707Z,27.60
2023-03-02T05:24:16.012Z,29.17
2023-03-02T05:26:42.868Z,28.73
2023-03-02T05:29:09.780Z,28.70
2023-03-02T05:31:42.284Z,28.85
2023-03-02T05:34:11.670Z,23.00
2023-03-02T05:36:39.193Z,24.02
2023-03-02T05:39:07.435Z,21.33
2023-03-02T05:41:35.262Z,23.38
2023-03-02T05:44:02.580Z,24.73
2023-03-02T05:46:29.445Z,21.23
2023-03-02T05:48:56.396Z,23.35
2023-03-02T05:51:23.253Z,20.00
2023-03-02T05:53:50.040Z,23.50
2023-03-02T05:56:16.989Z,24.08
2023-03-02T05:58:43.817Z,26.17
2023-03-02T06:01:14.845Z,22.52
2023-03-02T06:03:43.358Z,27.60
2023-03-02T06:06:14.276Z,25.17
2023-03-02T06:08:42.910Z,23.75
2023-03-02T06:11:11.127Z,25.73
2023-03-02T06:13:38.091Z,25.63
2023-03-02T06:16:05.516Z,25.48
2023-03-02T06:18:32.389Z,24.85
2023-03-02T06:21:00.107Z,29.70
2023-03-02T06:23:27.028Z,29.38
2023-03-02T06:25:54.204Z,19.05
2023-03-02T06:28:22.076Z,24.08
2023-03-02T06:30:49.818Z,20.55
2023-03-02T06:33:21.450Z,24.73
2023-03-02T06:35:49.318Z,26.55
2023-03-02T06:38:16.831Z,27.15
2023-03-02T06:40:43.971Z,31.55
2023-03-02T06:43:11.046Z,37.30
2023-03-02T06:45:38.103Z,33.75
2023-03-02T06:48:05.946Z,27.00
2023-03-02T06:50:33.669Z,29.15
2023-03-02T06:53:00.579Z,25.15
2023-03-02T06:55:27.695Z,19.77
2023-03-02T06:57:54.793Z,26.17
2023-03-02T07:00:26.401Z,27.63
2023-03-02T07:02:55.963Z,36.53
2023-03-02T07:05:24.540Z,65.20
2023-03-02T07:07:52.143Z,32.75
2023-03-02T07:10:19.092Z,28.92
2023-03-02T07:12:46.021Z,30.70
2023-03-02T07:15:14.475Z,36.78
2023-03-02T07:17:44.367Z,35.35
2023-03-02T07:20:14.700Z,35.20
2023-03-02T07:22:42.384Z,32.67
2023-03-02T07:25:10.756Z,18.70
2023-03-02T07:27:38.021Z,19.92
2023-03-02T07:30:06.254Z,29.38
2023-03-02T07:32:33.751Z,26.15
2023-03-02T07:35:00.800Z,32.42
2023-03-02T07:37:27.738Z,33.25
2023-03-02T07:39:54.615Z,18.88
2023-03-02T07:42:21.470Z,17.88
2023-03-02T07:44:54.001Z,19.95
2023-03-02T07:47:21.062Z,25.50
2023-03-02T07:49:47.935Z,19.90
2023-03-02T07:52:14.910Z,23.55
2023-03-02T07:54:41.905Z,20.75
2023-03-02T07:57:08.760Z,18.50
2023-03-02T07:59:35.661Z,19.92
2023-03-02T08:02:02.516Z,17.55
2023-03-02T08:04:29.459Z,16.27
2023-03-02T08:06:56.329Z,18.23
2023-03-02T08:09:23.111Z,18.13
2023-03-02T08:11:49.936Z,17.13
2023-03-02T08:14:16.933Z,22.20
2023-03-02T08:16:43.822Z,17.77
2023-03-02T08:19:10.799Z,18.33
2023-03-02T08:21:37.735Z,17.33
2023-03-02T08:24:05.318Z,19.38
2023-03-02T08:26:32.502Z,19.08
2023-03-02T08:28:59.800Z,17.20
2023-03-02T08:31:27.080Z,16.83
2023-03-02T08:33:54.259Z,18.17
2023-03-02T08:36:21.707Z,16.35
2023-03-02T08:38:49.294Z,18.77
2023-03-02T08:41:20.141Z,18.70
2023-03-02T08:43:47.850Z,16.33
2023-03-02T08:46:16.839Z,17.35
2023-03-02T08:48:44.508Z,16.00
2023-03-02T08:51:17.419Z,18.88
2023-03-02T08:53:46.435Z,16.92
2023-03-02T08:56:34.179Z,15.40
2023-03-02T08:59:04.129Z,15.70
2023-03-02T09:01:34.715Z,13.93
2023-03-02T09:04:02.956Z,15.65
2023-03-02T09:06:31.804Z,15.18
2023-03-02T09:08:58.960Z,14.48
2023-03-02T09:11:27.472Z,13.98
2023-03-02T09:13:55.096Z,13.73
2023-03-02T09:16:24.141Z,13.90
2023-03-02T09:18:51.412Z,13.90
2023-03-02T09:21:18.573Z,15.23
2023-03-02T09:23:45.603Z,16.05
2023-03-02T09:26:12.484Z,16.38
2023-03-02T09:28:39.930Z,17.85
2023-03-02T09:31:08.588Z,16.25
2023-03-02T09:33:36.110Z,15.82
2023-03-02T09:36:08.151Z,17.20
2023-03-02T09:38:35.106Z,17.58
2023-03-02T09:41:20.276Z,13.77
2023-03-02T09:44:24.709Z,13.52
2023-03-02T09:47:04.960Z,16.00
2023-03-02T09:49:34.650Z,15.63
2023-03-02T09:52:27.847Z,15.85
2023-03-02T09:54:56.063Z,15.95
2023-03-02T09:57:26.987Z,17.20
2023-03-02T10:00:18.674Z,14.65
2023-03-02T10:02:46.286Z,17.10
2023-03-02T10:05:18.105Z,15.95
2023-03-02T10:07:47.003Z,19.08
2023-03-02T10:10:32.674Z,21.35
2023-03-02T10:13:12.111Z,30.00
2023-03-02T10:15:48.900Z,17.55
2023-03-02T10:18:15.719Z,17.00
2023-03-02T10:20:54.414Z,24.52
2023-03-02T10:23:44.553Z,21.23
2023-03-02T10:26:15.901Z,34.30
2023-03-02T10:28:50.919Z,21.88
2023-03-02T10:31:29.682Z,21.40
2023-03-02T10:33:57.206Z,22.63
2023-03-02T10:36:25.708Z,21.95
2023-03-02T10:38:54.950Z,18.52
2023-03-02T10:41:32.867Z,22.13
2023-03-02T10:44:19.474Z,17.85
2023-03-02T10:46:47.215Z,19.35
2023-03-02T10:49:32.522Z,17.55
2023-03-02T10:52:19.552Z,20.25
2023-03-02T10:54:47.751Z,19.73
2023-03-02T10:57:40.408Z,19.55
2023-03-02T11:00:24.225Z,19.10
2023-03-02T11:02:54.119Z,19.25
2023-03-02T11:05:35.605Z,25.50
2023-03-02T11:08:18.937Z,19.10
2023-03-02T11:11:00.919Z,21.38
2023-03-02T11:13:33.112Z,20.10
2023-03-02T11:16:07.053Z,22.05
2023-03-02T11:18:44.685Z,21.33
2023-03-02T11:21:24.340Z,25.33
2023-03-02T11:24:21.561Z,27.42
2023-03-02T11:26:55.078Z,29.63
2023-03-02T11:29:44.204Z,35.17
2023-03-02T11:32:36.124Z,30.27
2023-03-02T11:35:09.098Z,20.25
2023-03-02T11:37:54.915Z,21.60
2023-03-02T11:40:30.299Z,19.40
2023-03-02T11:42:59.543Z,21.85
2023-03-02T11:45:30.969Z,22.55
2023-03-02T11:48:23.535Z,22.17
2023-03-02T11:51:01.105Z,24.95
2023-03-02T11:53:42.739Z,18.13
2023-03-02T11:56:10.008Z,21.33
2023-03-02T11:58:38.844Z,25.00
2023-03-02T12:01:10.094Z,22.55
2023-03-02T12:03:39.656Z,23.40
2023-03-02T12:06:25.930Z,26.27
2023-03-02T12:09:07.368Z,24.38
2023-03-02T12:11:39.007Z,31.58
2023-03-02T12:14:25.166Z,21.88
2023-03-02T12:16:52.574Z,24.33
2023-03-02T12:19:38.881Z,22.33
2023-03-02T12:22:10.677Z,20.25
2023-03-02T12:24:39.603Z,21.63
2023-03-02T12:27:15.700Z,33.83
2023-03-02T12:29:50.034Z,26.95
2023-03-02T12:32:27.853Z,31.30
2023-03-02T12:35:01.063Z,25.67
2023-03-02T12:37:31.842Z,28.58
2023-03-02T12:40:29.553Z,26.90
2023-03-02T12:43:27.877Z,21.70
2023-03-02T12:46:22.456Z,21.23
2023-03-02T12:49:01.202Z,20.60
2023-03-02T12:51:50.443Z,26.65
2023-03-02T12:54:20.515Z,22.50
2023-03-02T12:56:48.544Z,25.08
2023-03-02T12:59:27.134Z,26.27
2023-03-02T13:02:22.894Z,27.90
2023-03-02T13:04:58.903Z,29.77
2023-03-02T13:07:45.082Z,25.45
2023-03-02T13:10:28.389Z,22.95
2023-03-02T13:12:55.428Z,22.45
2023-03-02T13:15:22.484Z,18.80
2023-03-02T13:17:58.434Z,16.23
2023-03-02T13:20:30.167Z,19.05
2023-03-02T13:22:57.524Z,19.25
2023-03-02T13:25:29.884Z,27.63
2023-03-02T13:28:04.534Z,26.08
2023-03-02T13:30:34.025Z,20.77
2023-03-02T13:33:04.260Z,27.98
2023-03-02T13:35:36.111Z,23.27
2023-03-02T13:38:24.056Z,29.83
2023-03-02T13:40:53.619Z,29.05
2023-03-02T13:43:26.292Z,40.75
2023-03-02T13:46:13.253Z,27.75
2023-03-02T13:48:40.168Z,18.02
2023-03-02T13:51:18.935Z,21.15
2023-03-02T13:54:02.352Z,23.45
2023-03-02T13:56:34.568Z,28.55
2023-03-02T13:59:02.478Z,25.52
2023-03-02T14:01:29.459Z,21.50
2023-03-02T14:03:57.410Z,21.52
2023-03-02T14:06:24.333Z,24.67
2023-03-02T14:08:51.251Z,22.58
2023-03-02T14:11:18.915Z,23.35
2023-03-02T14:13:52.931Z,33.63
2023-03-02T14:16:20.246Z,30.75
2023-03-02T14:18:49.353Z,26.33
2023-03-02T14:21:22.460Z,31.42
2023-03-02T14:23:52.129Z,29.95
2023-03-02T14:26:21.944Z,24.60
2023-03-02T14:28:53.611Z,26.75
2023-03-02T14:31:27.460Z,28.60
2023-03-02T14:33:54.418Z,24.10
2023-03-02T14:36:31.417Z,23.55
2023-03-02T14:39:01.970Z,24.25
2023-03-02T14:41:30.078Z,24.73
2023-03-02T14:43:57.559Z,24.63
2023-03-02T14:46:24.588Z,22.67
2023-03-02T14:48:51.458Z,27.38
2023-03-02T14:51:26.194Z,35.72
2023-03-02T14:53:56.522Z,29.08
2023-03-02T14:56:23.671Z,62.97
2023-03-02T14:58:51.880Z,27.67
2023-03-02T15:01:20.014Z,22.77
2023-03-02T15:03:47.432Z,22.08
2023-03-02T15:06:26.838Z,23.63
2023-03-02T15:08:58.680Z,22.02
2023-03-02T15:11:26.725Z,19.17
2023-03-02T15:13:54.459Z,25.38
2023-03-02T15:16:22.295Z,26.92
2023-03-02T15:18:50.800Z,36.72
2023-03-02T15:21:24.066Z,38.08
2023-03-02T15:23:51.560Z,31.20
2023-03-02T15:26:18.663Z,27.77
2023-03-02T15:28:48.294Z,29.55
2023-03-02T15:31:17.117Z,44.28
2023-03-02T15:33:47.871Z,32.25
2023-03-02T15:36:14.770Z,45.10
2023-03-02T15:38:41.589Z,85.07
2023-03-02T15:41:13.601Z,90.53
2023-03-02T15:43:40.555Z,28.58
2023-03-02T15:46:09.518Z,32.03
2023-03-02T15:48:37.218Z,27.10
2023-03-02T15:51:08.047Z,24.83
2023-03-02T15:53:38.224Z,23.65
2023-03-02T15:56:15.062Z,24.27
2023-03-02T15:58:48.883Z,24.85
2023-03-02T16:01:16.750Z,26.77
2023-03-02T16:03:45.596Z,58.67
2023-03-02T16:06:13.469Z,29.90
2023-03-02T16:08:40.355Z,24.05
2023-03-02T16:11:08.509Z,30.17
2023-03-02T16:13:35.702Z,24.42
2023-03-02T16:16:06.699Z,28.08
2023-03-02T16:18:33.686Z,58.72
2023-03-02T16:21:02.569Z,35.22
2023-03-02T16:23:29.430Z,39.60
2023-03-02T16:26:06.976Z,34.97
2023-03-02T16:28:33.976Z,32.13
2023-03-02T16:31:08.681Z,32.97
2023-03-02T16:33:36.425Z,64.93
2023-03-02T16:36:03.586Z,42.60
2023-03-02T16:38:30.458Z,44.92
2023-03-02T16:40:57.436Z,43.67
2023-03-02T16:43:37.736Z,27.77
2023-03-02T16:46:11.447Z,34.78
2023-03-02T16:48:38.511Z,42.25
2023-03-02T16:51:05.783Z,51.42
2023-03-02T16:53:32.672Z,33.67
2023-03-02T16:55:59.576Z,34.53
2023-03-02T16:58:26.478Z,34.35
2023-03-02T17:00:53.592Z,35.60
2023-03-02T17:03:20.464Z,35.03
2023-03-02T17:05:47.709Z,31.85
2023-03-02T17:08:16.022Z,37.35
2023-03-02T17:10:44.100Z,29.00
2023-03-02T17:13:12.516Z,30.70
2023-03-02T17:15:39.822Z,28.98
2023-03-02T17:18:06.869Z,30.70
2023-03-02T17:20:34.024Z,36.63
2023-03-02T17:23:02.926Z,33.72
2023-03-02T17:25:30.051Z,36.47
2023-03-02T17:27:57.080Z,38.78
2023-03-02T17:30:24.106Z,44.97
2023-03-02T17:32:51.216Z,45.70
2023-03-02T17:35:18.266Z,37.00
2023-03-02T17:37:45.203Z,38.08
2023-03-02T17:40:13.994Z,38.88
2023-03-02T17:42:40.952Z,36.83
2023-03-02T17:45:08.463Z,35.00
2023-03-02T17:47:35.880Z,35.00
2023-03-02T17:50:04.731Z,36.08
2023-03-02T17:52:31.679Z,34.90
2023-03-02T17:54:58.578Z,37.47
2023-03-02T17:57:25.373Z,40.70
2023-03-02T17:59:52.332Z,50.53
2023-03-02T18:02:19.572Z,44.20
2023-03-02T18:04:46.474Z,43.22
2023-03-02T18:07:13.546Z,40.83
2023-03-02T18:09:40.366Z,48.10
2023-03-02T18:12:07.830Z,49.40
2023-03-02T18:14:36.186Z,44.30
2023-03-02T18:17:05.104Z,43.58
2023-03-02T18:19:32.007Z,41.78
2023-03-02T18:21:58.877Z,49.97
2023-03-02T18:24:25.858Z,45.63
2023-03-02T18:26:52.834Z,44.45
2023-03-02T18:29:20.153Z,45.08
2023-03-02T18:31:47.060Z,42.65
2023-03-02T18:34:14.416Z,47.63
2023-03-02T18:36:41.317Z,45.10
2023-03-02T18:39:08.250Z,44.40
2023-03-02T18:41:35.137Z,52.58
2023-03-02T18:44:03.558Z,61.90
2023-03-02T18:46:32.039Z,58.33
2023-03-02T18:49:00.953Z,57.72
2023-03-02T18:51:28.191Z,40.67
2023-03-02T18:53:55.455Z,33.90
2023-03-02T18:56:22.862Z,30.38
2023-03-02T18:58:51.592Z,30.52
2023-03-02T19:01:19.443Z,26.25
2023-03-02T19:03:46.511Z,29.98
2023-03-02T19:06:13.737Z,34.92
2023-03-02T19:08:41.060Z,28.23
2023-03-02T19:11:08.613Z,24.20
2023-03-02T19:13:35.622Z,26.83
2023-03-02T19:16:03.308Z,26.33
2023-03-02T19:18:31.041Z,26.25
2023-03-02T19:20:57.929Z,26.58
2023-03-02T19:23:25.607Z,27.48
2023-03-02T19:25:53.442Z,33.28
2023-03-02T19:28:21.831Z,31.42
2023-03-02T19:30:49.934Z,32.63
2023-03-02T19:33:17.741Z,35.10
2023-03-02T19:35:44.854Z,38.50
2023-03-02T19:38:12.851Z,42.05
2023-03-02T19:40:40.151Z,36.72
2023-03-02T19:43:07.319Z,39.25
2023-03-02T19:45:35.841Z,38.65
2023-03-02T19:48:05.819Z,37.50
2023-03-02T19:50:33.121Z,43.25
2023-03-02T19:53:00.012Z,40.47
2023-03-02T19:55:27.457Z,39.60
2023-03-02T19:58:00.198Z,43.22
2023-03-02T20:00:29.752Z,45.05
2023-03-02T20:02:57.686Z,40.88
2023-03-02T20:05:26.155Z,39.47
2023-03-02T20:07:54.099Z,50.00
2023-03-02T20:10:33.682Z,43.30
2023-03-02T20:13:01.633Z,34.72
2023-03-02T20:15:30.991Z,33.75
2023-03-02T20:17:59.541Z,31.92
2023-03-02T20:20:27.066Z,33.17
2023-03-02T20:22:55.415Z,30.45
2023-03-02T20:25:22.461Z,28.42
2023-03-02T20:27:51.858Z,29.50
2023-03-02T20:30:30.009Z,34.13
2023-03-02T20:35:26.212Z,29.83
2023-03-02T20:37:55.235Z,28.95
2023-03-02T20:40:23.347Z,39.00
2023-03-02T20:42:50.402Z,41.25
2023-03-02T20:45:17.333Z,32.53
2023-03-02T20:47:44.831Z,34.70
2023-03-02T20:50:16.284Z,34.45
2023-03-02T20:52:43.282Z,30.50
2023-03-02T20:55:11.424Z,30.58
2023-03-02T20:57:38.726Z,27.90
2023-03-02T21:00:09.444Z,30.10
2023-03-02T21:02:36.479Z,29.73
2023-03-02T21:05:05.187Z,30.27
2023-03-02T21:07:32.910Z,28.60
2023-03-02T21:09:59.784Z,27.27
2023-03-02T21:12:26.771Z,29.00
2023-03-02T21:14:53.901Z,30.58
2023-03-02T21:17:23.433Z,31.17
2023-03-02T21:19:50.380Z,32.80
2023-03-02T21:22:17.258Z,32.08
2023-03-02T21:24:44.236Z,29.42
2023-03-02T21:27:11.068Z,26.50
2023-03-02T21:29:37.926Z,24.88
2023-03-02T21:32:07.675Z,28.63
2023-03-02T21:34:38.234Z,27.52
2023-03-02T21:37:05.860Z,24.60
2023-03-02T21:39:33.149Z,26.05
2023-03-02T21:42:00.418Z,26.50
2023-03-02T21:44:27.257Z,27.27
2023-03-02T21:46:54.311Z,27.15
2023-03-02T21:49:22.536Z,23.08
2023-03-02T21:51:49.996Z,28.58
2023-03-02T21:54:17.440Z,29.02
2023-03-02T21:56:44.558Z,29.08
2023-03-02T21:59:12.149Z,28.70
2023-03-02T22:01:39.317Z,26.42
2023-03-02T22:04:06.721Z,26.80
2023-03-02T22:06:35.175Z,26.73
2023-03-02T22:09:02.809Z,26.40
2023-03-02T22:11:32.882Z,27.85
2023-03-02T22:14:03.198Z,26.90
2023-03-02T22:16:39.206Z,31.10
2023-03-02T22:19:18.072Z,24.85
2023-03-02T22:21:48.507Z,25.98
2023-03-02T22:24:25.416Z,27.42
2023-03-02T22:27:23.484Z,26.60
2023-03-02T22:29:53.458Z,31.17
2023-03-02T22:32:24.461Z,35.28
2023-03-02T22:34:54.675Z,33.33
2023-03-02T22:37:27.666Z,29.92
2023-03-02T22:40:01.549Z,27.45
2023-03-02T22:42:31.103Z,27.60
2023-03-02T22:45:14.963Z,27.35
2023-03-02T22:47:43.432Z,28.92
2023-03-02T22:50:28.341Z,29.98
2023-03-02T22:52:57.581Z,30.90
2023-03-02T22:55:42.522Z,29.98
2023-03-02T22:58:24.873Z,31.75
2023-03-02T23:00:52.097Z,36.28
2023-03-02T23:03:24.948Z,30.10
2023-03-02T23:05:53.126Z,30.50
2023-03-02T23:08:28.818Z,28.05
2023-03-02T23:10:59.359Z,28.02
2023-03-02T23:13:38.061Z,25.98
2023-03-02T23:16:34.845Z,27.80
2023-03-02T23:19:02.610Z,28.27
2023-03-02T23:21:41.157Z,31.63
2023-03-02T23:24:08.702Z,26.95
2023-03-02T23:26:35.955Z,27.17
2023-03-02T23:29:03.874Z,26.63
2023-03-02T23:31:30.829Z,28.60
2023-03-02T23:33:57.679Z,25.50
2023-03-02T23:36:24.555Z,25.73
2023-03-02T23:38:51.489Z,31.52
2023-03-02T23:41:18.444Z,27.65
2023-03-02T23:43:45.887Z,23.90
2023-03-02T23:46:14.274Z,27.42
2023-03-02T23:48:42.565Z,30.73
2023-03-02T23:51:10.062Z,30.77
2023-03-02T23:53:36.952Z,31.00
2023-03-02T23:56:04.120Z,29.20
2023-03-02T23:58:30.942Z,31.70
